Sturgeon, Missouri
Current Conditions -  °F | °C
As of 3:54 AM on Thursday 27 Nov 2014 (Local Time) from KCOU Reporting Station
Overcast Overcast  
Wind Chill: 21°   Ceiling: 1900
Heat Index: 31°   Visibility: 8mi
Dew Point: 26°   Wind: 13mph
Humidity: 82%   Direction: 330°NNW
Pressure: 30.41"   Gusts: NA
Location:  39.23°N, 92.28°W
Report Text: KCOU 270954Z AUTO 33011KT 8SM OVC019 M01/M03 A3041 RMK AO2 SLP304 T10061033
Loading
Personal Weather Stations






























Interactive Weather Map New forecast layout! Learn more

10-Day Weather Forecast

Advertisements
Track Severe Weather on mobile